Time;durP1;ratioP1;P1;durP2;ratioP2;P2;SDS_P1;SDS_P2;PMS_P1;PMS_P2;Temp;Humidity;BMP_temperature;BMP_pressure;BME280_temperature;BME280_humidity;BME280_pressure;Samples;Min_cycle;Max_cycle;Signal;HPM_P1;HPM_P2
2021/04/14 00:00:28;;;;;;;5.20;2.78;;;0.90;99.90;;;;;;5062931;28;20045;-60
2021/04/14 00:02:55;;;;;;;10.40;3.80;;;0.90;99.90;;;;;;5062816;28;20488;-58
2021/04/14 00:05:24;;;;;;;11.77;3.85;;;0.80;99.90;;;;;;5062535;28;20490;-61
2021/04/14 00:07:49;;;;;;;5.70;3.10;;;0.80;99.90;;;;;;5062538;28;20452;-60
2021/04/14 00:10:20;;;;;;;6.72;3.25;;;0.80;99.90;;;;;;5062997;28;20074;-57
2021/04/14 00:12:46;;;;;;;6.07;3.00;;;0.70;99.90;;;;;;5062623;28;20036;-58
2021/04/14 00:15:16;;;;;;;4.30;2.90;;;0.60;99.90;;;;;;5052649;28;20067;-58
2021/04/14 00:17:42;;;;;;;5.53;2.88;;;0.50;99.90;;;;;;5050012;28;20044;-58
2021/04/14 00:20:10;;;;;;;8.95;3.05;;;0.50;99.90;;;;;;5048834;28;20037;-57
2021/04/14 00:22:36;;;;;;;8.43;3.80;;;0.60;99.90;;;;;;5048406;28;20361;-60
2021/04/14 00:25:03;;;;;;;7.60;3.70;;;0.60;99.90;;;;;;5049643;28;20508;-61
2021/04/14 00:27:29;;;;;;;9.02;4.03;;;0.60;99.90;;;;;;5048388;28;20053;-58
2021/04/14 00:29:54;;;;;;;8.43;4.00;;;0.50;99.90;;;;;;5044012;28;20036;-55
2021/04/14 00:32:20;;;;;;;6.30;3.50;;;0.50;99.90;;;;;;5048599;28;20123;-55
2021/04/14 00:34:45;;;;;;;8.65;3.85;;;0.50;99.90;;;;;;5049622;28;20094;-57
2021/04/14 00:37:11;;;;;;;8.38;4.45;;;0.60;99.90;;;;;;5048649;28;20056;-55
2021/04/14 00:39:37;;;;;;;9.38;4.93;;;0.50;99.90;;;;;;5049417;28;20044;-61
2021/04/14 00:42:03;;;;;;;9.35;4.60;;;0.50;99.90;;;;;;5049365;28;20037;-57
2021/04/14 00:44:29;;;;;;;7.28;4.15;;;0.40;99.90;;;;;;5038874;28;20045;-57
2021/04/14 00:46:54;;;;;;;6.95;3.45;;;0.50;99.90;;;;;;5043469;28;20068;-61
2021/04/14 00:49:20;;;;;;;5.13;3.70;;;0.50;99.90;;;;;;5048878;28;20382;-57
2021/04/14 00:51:47;;;;;;;6.10;3.97;;;0.40;99.90;;;;;;5050574;28;20028;-58
2021/04/14 00:54:12;;;;;;;9.15;4.28;;;0.40;99.90;;;;;;5068941;28;20226;-60
2021/04/14 00:56:38;;;;;;;9.50;4.18;;;0.30;99.90;;;;;;5068795;28;20123;-57
2021/04/14 00:59:04;;;;;;;14.82;4.32;;;0.40;99.90;;;;;;5068018;28;20033;-59
2021/04/14 01:01:29;;;;;;;7.75;3.90;;;0.30;99.90;;;;;;5067068;28;20621;-52
2021/04/14 01:03:55;;;;;;;8.02;3.55;;;0.40;99.90;;;;;;5068632;28;20449;-59
2021/04/14 01:06:25;;;;;;;9.20;3.65;;;0.30;99.90;;;;;;5068610;28;20041;-58
2021/04/14 01:08:50;;;;;;;7.82;3.80;;;0.30;99.90;;;;;;5068074;28;20033;-57
2021/04/14 01:11:17;;;;;;;7.07;3.65;;;0.30;99.90;;;;;;5068057;28;20033;-57
2021/04/14 01:13:43;;;;;;;5.78;3.65;;;0.20;99.90;;;;;;5068159;28;20602;-57
2021/04/14 01:16:09;;;;;;;6.00;4.30;;;0.20;99.90;;;;;;5067475;28;20106;-61
2021/04/14 01:18:37;;;;;;;8.02;3.72;;;0.20;99.90;;;;;;5068342;28;20045;-59
2021/04/14 01:21:21;;;;;;;9.18;3.78;;;0.10;99.90;;;;;;5067744;28;20151;-59
2021/04/14 01:23:46;;;;;;;6.55;3.70;;;0.10;99.90;;;;;;5068088;28;20090;-56
2021/04/14 01:26:12;;;;;;;5.35;3.33;;;0.10;99.90;;;;;;5066795;28;20381;-59
2021/04/14 01:28:40;;;;;;;8.93;3.63;;;0.10;99.90;;;;;;5067541;28;20131;-58
2021/04/14 01:31:10;;;;;;;8.95;3.97;;;0.00;99.90;;;;;;5067845;28;20038;-59
2021/04/14 01:33:36;;;;;;;9.02;4.20;;;0.00;99.90;;;;;;5067729;28;20105;-60
2021/04/14 01:36:04;;;;;;;7.03;3.90;;;0.00;99.90;;;;;;5067981;28;20565;-56
2021/04/14 01:38:30;;;;;;;10.13;4.10;;;0.00;99.90;;;;;;5067367;28;20089;-61
2021/04/14 01:40:58;;;;;;;10.82;4.13;;;-0.10;99.90;;;;;;5068460;28;20040;-55
2021/04/14 01:43:24;;;;;;;9.43;4.50;;;0.00;99.90;;;;;;5067928;28;20041;-60
2021/04/14 01:45:49;;;;;;;8.48;3.67;;;-0.10;99.90;;;;;;5066570;28;20036;-57
2021/04/14 01:48:18;;;;;;;7.78;4.00;;;-0.10;99.90;;;;;;5068378;28;20389;-59
2021/04/14 01:50:44;;;;;;;7.28;4.00;;;-0.20;99.90;;;;;;5066890;28;20033;-55
2021/04/14 01:53:13;;;;;;;8.18;3.95;;;-0.20;99.90;;;;;;5067571;28;20045;-60
2021/04/14 01:55:39;;;;;;;7.35;3.25;;;-0.30;99.90;;;;;;5067197;28;20036;-59
2021/04/14 01:58:07;;;;;;;10.55;4.15;;;-0.20;99.90;;;;;;5067885;28;20055;-57
2021/04/14 02:00:42;;;;;;;6.80;3.95;;;-0.20;99.90;;;;;;5067166;28;20040;-60
2021/04/14 02:03:08;;;;;;;7.13;4.05;;;-0.30;99.90;;;;;;5066450;28;20041;-57
2021/04/14 02:05:34;;;;;;;7.75;4.30;;;-0.30;99.90;;;;;;5067795;28;20051;-57
2021/04/14 02:08:01;;;;;;;9.77;4.07;;;-0.30;99.90;;;;;;5067185;28;20044;-57
2021/04/14 02:10:29;;;;;;;7.43;3.85;;;-0.30;99.90;;;;;;5066892;28;20047;-60
2021/04/14 02:12:56;;;;;;;10.63;4.40;;;-0.30;99.90;;;;;;5067305;28;20484;-57
2021/04/14 02:15:26;;;;;;;10.55;4.22;;;-0.20;99.90;;;;;;5066002;28;20051;-60
2021/04/14 02:17:52;;;;;;;11.45;3.78;;;-0.20;99.90;;;;;;5067738;28;20533;-56
2021/04/14 02:20:19;;;;;;;9.82;3.58;;;-0.20;99.90;;;;;;5067222;28;20076;-59
2021/04/14 02:22:44;;;;;;;5.43;4.00;;;-0.20;99.90;;;;;;5066895;28;20408;-61
2021/04/14 02:25:12;;;;;;;11.80;3.47;;;-0.20;99.90;;;;;;5067089;28;20037;-57
2021/04/14 02:27:39;;;;;;;8.95;3.97;;;-0.30;99.90;;;;;;5065767;28;20106;-58
2021/04/14 02:30:11;;;;;;;7.50;4.05;;;-0.40;99.90;;;;;;5067027;28;20063;-59
2021/04/14 02:32:37;;;;;;;7.63;4.10;;;-0.30;99.90;;;;;;5045910;28;20420;-57
2021/04/14 02:35:03;;;;;;;11.38;3.67;;;-0.30;99.90;;;;;;5046601;28;20509;-60
2021/04/14 02:37:29;;;;;;;10.20;3.85;;;-0.30;99.90;;;;;;5047042;28;20041;-59
2021/04/14 02:39:55;;;;;;;6.63;3.40;;;-0.30;99.90;;;;;;5059256;28;20040;-55
2021/04/14 02:42:20;;;;;;;10.02;4.10;;;-0.30;99.90;;;;;;5066792;28;20047;-60
2021/04/14 02:44:46;;;;;;;9.15;4.07;;;-0.30;99.90;;;;;;5054731;28;20281;-58
2021/04/14 02:47:11;;;;;;;11.70;4.57;;;-0.40;99.90;;;;;;5046116;28;20091;-57
2021/04/14 02:49:37;;;;;;;13.65;6.20;;;-0.30;99.90;;;;;;5046265;28;20048;-57
2021/04/14 02:52:03;;;;;;;10.05;4.90;;;-0.30;99.90;;;;;;5046090;28;20045;-56
2021/04/14 02:54:29;;;;;;;8.82;4.70;;;-0.30;99.90;;;;;;5046903;28;20037;-55
2021/04/14 02:56:54;;;;;;;10.48;5.43;;;-0.30;99.90;;;;;;5046363;28;20041;-60
2021/04/14 02:59:20;;;;;;;6.93;4.20;;;-0.30;99.90;;;;;;5047163;28;20039;-60
2021/04/14 03:01:45;;;;;;;11.77;4.60;;;-0.30;99.90;;;;;;5058916;28;20500;-57
2021/04/14 03:04:11;;;;;;;14.30;4.57;;;-0.20;99.90;;;;;;5066102;28;20427;-58
2021/04/14 03:06:37;;;;;;;6.47;4.10;;;-0.20;99.90;;;;;;5067128;28;20056;-56
2021/04/14 03:09:04;;;;;;;8.73;4.45;;;-0.20;99.90;;;;;;5066994;28;20048;-58
2021/04/14 03:11:29;;;;;;;9.23;4.25;;;-0.10;99.90;;;;;;5066374;28;20447;-58
2021/04/14 03:13:56;;;;;;;8.73;4.03;;;-0.10;99.90;;;;;;5066744;28;20036;-54
2021/04/14 03:16:23;;;;;;;6.43;3.72;;;-0.10;99.90;;;;;;5060904;28;20608;-58
2021/04/14 03:18:48;;;;;;;8.23;4.40;;;-0.10;99.90;;;;;;5045945;28;20123;-60
2021/04/14 03:21:14;;;;;;;7.30;4.10;;;0.00;99.90;;;;;;5045479;28;20128;-55
2021/04/14 03:23:39;;;;;;;13.07;4.38;;;0.00;99.90;;;;;;5046170;28;20127;-59
2021/04/14 03:26:06;;;;;;;11.52;4.30;;;0.00;99.90;;;;;;5045809;28;20044;-59
2021/04/14 03:28:32;;;;;;;10.20;4.00;;;0.00;99.90;;;;;;5046328;28;20045;-60
2021/04/14 03:30:57;;;;;;;9.05;4.72;;;0.00;99.90;;;;;;5052508;28;20493;-58
2021/04/14 03:33:23;;;;;;;10.68;4.78;;;0.00;99.90;;;;;;5066183;28;20327;-56
2021/04/14 03:35:48;;;;;;;12.35;5.28;;;0.00;99.90;;;;;;5066388;28;20036;-56
2021/04/14 03:38:14;;;;;;;9.10;4.40;;;-0.10;99.90;;;;;;5066809;28;20037;-58
2021/04/14 03:40:39;;;;;;;11.82;5.30;;;-0.10;99.90;;;;;;5066679;28;20037;-58
2021/04/14 03:43:05;;;;;;;11.27;4.72;;;-0.10;99.90;;;;;;5065833;28;20059;-59
2021/04/14 03:45:41;;;;;;;6.53;4.25;;;-0.20;99.90;;;;;;5066339;28;20036;-59
2021/04/14 03:48:08;;;;;;;9.00;5.82;;;-0.20;99.90;;;;;;5066751;28;20204;-60
2021/04/14 03:50:35;;;;;;;11.90;5.80;;;-0.20;99.90;;;;;;5068157;28;20048;-59
2021/04/14 03:53:16;;;;;;;9.93;5.80;;;-0.20;99.90;;;;;;5069446;28;20102;-60
2021/04/14 03:55:42;;;;;;;9.15;6.05;;;-0.30;99.90;;;;;;5062253;28;20044;-58
2021/04/14 03:58:08;;;;;;;12.38;5.88;;;-0.30;99.90;;;;;;5069719;28;20071;-57
2021/04/14 04:00:33;;;;;;;10.77;5.18;;;-0.30;99.90;;;;;;5069341;28;20111;-57
2021/04/14 04:02:59;;;;;;;13.30;6.05;;;-0.30;99.90;;;;;;5069076;28;20408;-61
2021/04/14 04:05:25;;;;;;;13.10;5.63;;;-0.30;99.90;;;;;;5068881;28;20037;-58
2021/04/14 04:07:50;;;;;;;8.02;5.18;;;-0.30;99.90;;;;;;5071085;28;20040;-59
2021/04/14 04:10:16;;;;;;;9.88;5.15;;;-0.30;99.90;;;;;;5070421;28;20083;-52
2021/04/14 04:12:41;;;;;;;9.88;5.45;;;-0.40;99.90;;;;;;5069633;28;20033;-50
2021/04/14 04:15:12;;;;;;;13.68;5.25;;;-0.40;99.90;;;;;;5055535;23;20047;-72
2021/04/14 04:17:38;;;;;;;17.90;6.97;;;-0.40;99.90;;;;;;5012391;28;20091;-73
2021/04/14 04:20:08;;;;;;;13.07;5.97;;;-0.40;99.90;;;;;;5030616;28;20040;-69
2021/04/14 04:22:34;;;;;;;11.50;6.20;;;-0.40;99.90;;;;;;5017969;28;20038;-70
2021/04/14 04:25:00;;;;;;;9.05;6.05;;;-0.40;99.90;;;;;;5030496;28;20029;-72
2021/04/14 04:27:26;;;;;;;8.50;5.57;;;-0.40;99.90;;;;;;5030807;28;20440;-73
2021/04/14 04:29:52;;;;;;;15.68;6.18;;;-0.40;99.90;;;;;;5030112;28;20052;-70
2021/04/14 04:32:17;;;;;;;14.88;6.22;;;-0.40;99.90;;;;;;5029216;28;20043;-70
2021/04/14 04:34:44;;;;;;;13.85;5.80;;;-0.40;99.90;;;;;;5030083;28;20045;-70
2021/04/14 04:37:10;;;;;;;10.90;6.05;;;-0.40;99.90;;;;;;5029861;28;20033;-70
2021/04/14 04:39:36;;;;;;;13.65;6.85;;;-0.40;99.90;;;;;;5029784;28;20038;-71
2021/04/14 04:42:01;;;;;;;12.65;7.00;;;-0.40;99.90;;;;;;5029253;28;20033;-69
2021/04/14 04:44:27;;;;;;;13.05;7.63;;;-0.40;99.90;;;;;;5029861;28;20652;-72
2021/04/14 04:46:53;;;;;;;14.30;5.78;;;-0.40;99.90;;;;;;5029261;28;20061;-71
2021/04/14 04:49:19;;;;;;;10.48;5.65;;;-0.40;99.90;;;;;;5029816;28;20115;-72
2021/04/14 04:51:44;;;;;;;10.77;6.18;;;-0.40;99.90;;;;;;5030756;28;20083;-69
2021/04/14 04:54:12;;;;;;;13.70;6.60;;;-0.40;99.90;;;;;;5029489;28;20049;-71
2021/04/14 04:56:37;;;;;;;13.18;6.30;;;-0.30;99.90;;;;;;5029721;28;20109;-72
2021/04/14 04:59:03;;;;;;;12.15;5.85;;;-0.20;99.90;;;;;;5029944;28;20121;-73
2021/04/14 05:01:29;;;;;;;9.95;5.72;;;0.10;99.90;;;;;;5029215;28;20091;-72
2021/04/14 05:03:55;;;;;;;13.05;5.53;;;0.70;99.90;;;;;;5029168;28;20128;-73
2021/04/14 05:06:20;;;;;;;8.05;4.30;;;1.50;99.90;;;;;;5029528;28;20049;-71
2021/04/14 05:08:47;;;;;;;9.20;4.45;;;2.20;99.90;;;;;;5030617;28;20044;-70
2021/04/14 05:11:14;;;;;;;8.68;4.75;;;2.60;99.90;;;;;;5030587;28;20034;-75
2021/04/14 05:13:40;;;;;;;6.45;5.13;;;2.70;99.90;;;;;;5030032;28;20045;-73
2021/04/14 05:16:06;;;;;;;15.48;5.50;;;2.40;99.90;;;;;;5026494;28;20041;-70
2021/04/14 05:18:34;;;;;;;9.13;5.13;;;2.50;99.90;;;;;;5029491;28;20343;-69
2021/04/14 05:21:00;;;;;;;9.95;4.90;;;3.30;99.90;;;;;;5029449;28;20073;-71
2021/04/14 05:23:25;;;;;;;;;;;4.30;99.90;;;;;;5030075;28;20642;-72
2021/04/14 05:25:51;;;;;;;7.50;4.40;;;4.90;99.40;;;;;;5031203;28;19928;-71
2021/04/14 05:28:21;;;;;;;7.55;4.10;;;5.50;97.60;;;;;;5029768;28;20498;-69
2021/04/14 05:30:47;;;;;;;8.07;3.47;;;6.10;96.50;;;;;;5029430;28;20034;-71
2021/04/14 05:33:13;;;;;;;;;;;6.60;94.70;;;;;;5029721;28;20060;-68
2021/04/14 05:35:41;;;;;;;5.53;3.30;;;6.70;93.50;;;;;;5028954;28;19917;-72
2021/04/14 05:38:07;;;;;;;4.88;3.00;;;7.10;93.20;;;;;;5029513;28;20077;-69
2021/04/14 05:40:34;;;;;;;5.57;3.70;;;7.20;92.50;;;;;;5029081;28;20072;-69
2021/04/14 05:43:09;;;;;;;8.57;4.15;;;6.80;93.50;;;;;;5029116;28;20045;-69
2021/04/14 05:45:35;;;;;;;10.02;3.75;;;6.30;92.90;;;;;;5028512;28;20039;-72
2021/04/14 05:48:01;;;;;;;;;;;6.70;94.40;;;;;;5029152;28;20045;-72
2021/04/14 05:50:26;;;;;;;11.82;4.32;;;7.10;92.70;;;;;;5028828;28;19964;-69
2021/04/14 05:52:52;;;;;;;;;;;6.90;93.60;;;;;;5028474;28;20038;-70
2021/04/14 05:55:20;;;;;;;8.88;4.68;;;6.10;93.70;;;;;;5028859;28;19917;-68
2021/04/14 05:57:46;;;;;;;7.93;4.50;;;6.10;95.10;;;;;;5029948;28;20121;-68
2021/04/14 06:00:14;;;;;;;;;;;6.80;94.30;;;;;;5028638;28;20053;-71
2021/04/14 06:02:42;;;;;;;10.25;4.13;;;7.10;92.80;;;;;;5027262;28;19932;-72
2021/04/14 06:05:13;;;;;;;8.80;5.72;;;6.30;93.70;;;;;;5028976;28;20044;-70
2021/04/14 06:07:39;;;;;;;12.48;4.43;;;5.40;95.50;;;;;;5027343;28;20041;-69
2021/04/14 06:10:06;;;;;;;;;;;5.00;97.10;;;;;;5026760;28;20045;-68
2021/04/14 06:12:31;;;;;;;9.35;4.70;;;6.00;96.90;;;;;;5025313;28;20019;-66
2021/04/14 06:14:57;;;;;;;;;;;7.30;94.10;;;;;;5027241;28;20137;-71
2021/04/14 06:17:23;;;;;;;8.05;4.03;;;7.70;91.00;;;;;;5026227;28;19932;-68
2021/04/14 06:19:50;;;;;;;5.10;2.72;;;8.00;91.30;;;;;;5026811;28;20042;-70
2021/04/14 06:22:17;;;;;;;9.70;2.42;;;8.20;90.10;;;;;;5026864;28;20095;-70
2021/04/14 06:24:45;;;;;;;9.52;2.20;;;7.20;90.60;;;;;;5027581;28;20080;-67
2021/04/14 06:27:16;;;;;;;4.55;2.13;;;6.40;92.20;;;;;;5023536;28;20029;-68
2021/04/14 06:29:42;;;;;;;4.50;1.90;;;6.40;92.70;;;;;;5026486;28;20037;-71
2021/04/14 06:32:07;;;;;;;;;;;6.20;91.70;;;;;;5025453;28;20099;-69
2021/04/14 06:34:33;;;;;;;5.93;2.13;;;6.90;92.20;;;;;;5025547;28;19920;-72
2021/04/14 06:36:59;;;;;;;;;;;7.00;92.60;;;;;;5027230;28;20034;-69
2021/04/14 06:39:35;;;;;;;5.68;2.05;;;7.50;91.40;;;;;;5025483;28;19995;-71
2021/04/14 06:42:27;;;;;;;5.95;2.28;;;8.30;90.30;;;;;;5024071;28;20061;-69
2021/04/14 06:45:07;;;;;;;3.28;1.70;;;8.70;85.40;;;;;;5021198;28;20141;-71
2021/04/14 06:47:39;;;;;;;5.60;2.58;;;7.70;86.30;;;;;;4988321;28;20073;-72
2021/04/14 06:50:16;;;;;;;6.95;1.75;;;7.30;90.10;;;;;;5004762;28;20069;-70
2021/04/14 06:53:19;;;;;;;7.68;1.77;;;7.80;90.50;;;;;;4998503;28;20053;-72
2021/04/14 06:55:57;;;;;;;6.03;1.73;;;7.50;90.60;;;;;;5009241;28;20099;-71
2021/04/14 06:58:49;;;;;;;8.68;2.50;;;6.50;92.10;;;;;;5007936;28;20045;-69
2021/04/14 07:01:27;;;;;;;6.75;1.90;;;6.30;92.90;;;;;;5005915;28;20041;-69
2021/04/14 07:04:52;;;;;;;8.82;2.30;;;5.90;93.50;;;;;;5007925;28;20097;-72
2021/04/14 07:07:24;;;;;;;6.18;2.85;;;5.20;94.20;;;;;;4931618;29;20126;-72
2021/04/14 07:09:53;;;;;;;6.53;2.83;;;5.00;95.70;;;;;;4932591;29;20078;-71
2021/04/14 07:12:21;;;;;;;6.32;3.05;;;5.20;95.70;;;;;;4970585;28;20081;-70
2021/04/14 07:14:51;;;;;;;10.90;3.25;;;5.00;95.80;;;;;;5007853;28;20052;-72
2021/04/14 07:17:38;;;;;;;12.68;3.38;;;4.90;96.10;;;;;;5012547;28;20500;-68
2021/04/14 07:20:24;;;;;;;14.32;3.15;;;4.60;96.10;;;;;;5007586;28;20038;-69
2021/04/14 07:23:01;;;;;;;6.57;2.85;;;4.60;96.00;;;;;;5007274;28;20042;-71
2021/04/14 07:25:42;;;;;;;6.57;2.95;;;4.70;97.30;;;;;;5026197;28;20045;-69
2021/04/14 07:28:15;;;;;;;12.13;3.70;;;5.10;96.60;;;;;;5011832;28;20033;-68
2021/04/14 07:30:59;;;;;;;8.55;3.17;;;5.40;95.80;;;;;;5011002;28;20038;-69
2021/04/14 07:33:42;;;;;;;8.30;2.80;;;5.00;95.30;;;;;;5011799;28;20042;-71
2021/04/14 07:36:39;;;;;;;5.03;2.55;;;4.60;95.80;;;;;;5011907;28;20046;-72
2021/04/14 07:39:26;;;;;;;6.55;2.35;;;4.30;96.30;;;;;;5011331;28;20038;-72
2021/04/14 07:42:32;;;;;;;11.13;2.85;;;4.30;96.80;;;;;;5023392;28;20033;-69
2021/04/14 07:45:18;;;;;;;18.75;3.75;;;4.30;97.00;;;;;;5015934;28;20046;-71
2021/04/14 07:47:51;;;;;;;6.90;2.75;;;4.10;97.70;;;;;;5030948;28;20041;-70
2021/04/14 07:50:22;;;;;;;7.63;2.72;;;3.90;98.20;;;;;;5032476;28;20048;-71
2021/04/14 07:52:48;;;;;;;10.57;3.35;;;3.90;98.40;;;;;;5029667;28;20069;-69
2021/04/14 07:55:33;;;;;;;6.72;2.88;;;4.00;98.60;;;;;;5030808;28;20041;-71
2021/04/14 07:58:13;;;;;;;3.08;1.75;;;4.20;98.40;;;;;;5035530;28;20037;-69
2021/04/14 08:00:43;;;;;;;6.32;2.05;;;4.40;96.20;;;;;;5050657;28;20044;-67
2021/04/14 08:03:14;;;;;;;6.57;2.20;;;4.50;96.60;;;;;;5050545;28;20044;-71
2021/04/14 08:05:40;;;;;;;12.82;3.17;;;4.30;95.90;;;;;;5027948;28;20041;-67
2021/04/14 08:08:13;;;;;;;;;;;4.30;96.90;;;;;;5026666;28;20039;-71
2021/04/14 08:10:39;;;;;;;9.48;2.25;;;4.00;96.70;;;;;;5023409;28;20370;-70
2021/04/14 08:13:07;;;;;;;6.55;2.40;;;4.00;98.00;;;;;;5030687;28;20063;-71
2021/04/14 08:15:46;;;;;;;10.45;2.60;;;4.10;98.30;;;;;;5029972;28;20099;-70
2021/04/14 08:18:24;;;;;;;6.30;2.67;;;3.90;98.40;;;;;;5030037;28;20474;-70
2021/04/14 08:21:15;;;;;;;10.40;2.42;;;3.90;98.80;;;;;;5030346;28;20513;-70
2021/04/14 08:24:00;;;;;;;9.45;2.53;;;4.00;98.80;;;;;;5028951;28;20068;-71
2021/04/14 08:26:30;;;;;;;8.45;3.17;;;3.70;98.40;;;;;;5027789;28;20048;-70
2021/04/14 08:29:10;;;;;;;6.88;2.70;;;3.70;98.70;;;;;;5029506;28;20033;-69
2021/04/14 08:31:47;;;;;;;11.00;2.90;;;4.10;99.90;;;;;;5023232;28;20046;-69
2021/04/14 08:34:32;;;;;;;14.45;3.10;;;4.10;98.20;;;;;;5032171;28;20115;-71
2021/04/14 08:37:21;;;;;;;7.63;2.47;;;4.30;97.40;;;;;;5029917;28;20049;-70
2021/04/14 08:39:57;;;;;;;12.65;3.25;;;4.30;97.40;;;;;;5041240;28;20033;-70
2021/04/14 08:42:33;;;;;;;10.70;2.40;;;4.10;98.00;;;;;;5030608;28;20044;-71
2021/04/14 08:45:33;;;;;;;9.18;2.05;;;4.20;97.60;;;;;;5030304;28;20046;-72
2021/04/14 08:48:23;;;;;;;7.88;2.08;;;4.40;98.00;;;;;;4968406;28;20384;-70
2021/04/14 08:50:52;;;;;;;6.75;1.70;;;4.60;96.60;;;;;;5011968;28;20041;-68
2021/04/14 08:53:28;;;;;;;4.55;1.70;;;4.40;96.50;;;;;;5029243;28;20045;-69
2021/04/14 08:55:54;;;;;;;6.15;1.63;;;4.30;95.60;;;;;;5029362;28;20037;-71
2021/04/14 08:58:21;;;;;;;8.18;1.80;;;4.00;96.60;;;;;;5029451;28;20047;-70
2021/04/14 09:00:48;;;;;;;3.15;1.40;;;3.90;96.80;;;;;;5030510;28;20041;-71
2021/04/14 09:03:20;;;;;;;7.53;1.50;;;4.10;96.80;;;;;;5027865;28;20057;-71
2021/04/14 09:05:47;;;;;;;7.07;1.42;;;4.00;97.60;;;;;;5027674;28;20045;-70
2021/04/14 09:08:19;;;;;;;11.82;1.95;;;4.00;98.20;;;;;;5027389;28;20705;-73
2021/04/14 09:10:57;;;;;;;6.88;1.65;;;3.90;97.90;;;;;;5026853;28;20092;-72
2021/04/14 09:13:43;;;;;;;7.20;2.10;;;3.90;97.70;;;;;;5027633;28;20056;-70
2021/04/14 09:16:10;;;;;;;8.33;2.17;;;3.80;97.80;;;;;;5019378;28;20050;-69
2021/04/14 09:18:43;;;;;;;4.70;1.75;;;3.60;98.40;;;;;;5008152;28;20062;-71
2021/04/14 09:21:13;;;;;;;6.45;2.10;;;3.60;98.40;;;;;;5003312;28;20048;-69
2021/04/14 09:23:51;;;;;;;4.68;1.70;;;3.70;98.20;;;;;;4997974;28;20049;-68
2021/04/14 09:26:29;;;;;;;3.65;1.70;;;3.70;97.20;;;;;;5002056;28;20041;-70
2021/04/14 09:28:55;;;;;;;6.40;2.40;;;3.80;98.00;;;;;;5002433;28;20045;-71
2021/04/14 09:31:42;;;;;;;4.63;2.08;;;3.80;97.60;;;;;;5016931;28;20045;-69
2021/04/14 09:34:45;;;;;;;7.65;1.98;;;3.80;96.80;;;;;;5027805;28;20052;-70
2021/04/14 09:37:14;;;;;;;8.43;1.55;;;3.60;97.50;;;;;;5024765;28;20564;-71
2021/04/14 09:39:46;;;;;;;9.77;2.25;;;3.80;98.30;;;;;;5029782;28;20041;-72
2021/04/14 09:42:15;;;;;;;3.88;2.08;;;3.70;97.60;;;;;;5032320;28;20037;-71
2021/04/14 09:44:45;;;;;;;5.80;1.52;;;3.90;97.60;;;;;;5027062;28;20084;-70
2021/04/14 09:47:12;;;;;;;7.70;2.75;;;3.90;98.50;;;;;;5025216;28;20111;-69
2021/04/14 09:49:44;;;;;;;3.42;1.58;;;4.10;97.70;;;;;;5034409;28;20040;-72
2021/04/14 09:52:19;;;;;;;4.95;1.60;;;4.10;98.10;;;;;;5036184;28;20042;-71
2021/04/14 09:54:46;;;;;;;8.52;1.88;;;4.30;96.70;;;;;;5026492;28;20133;-70
2021/04/14 09:57:18;;;;;;;8.25;1.70;;;4.10;97.20;;;;;;5027601;28;20045;-72
2021/04/14 09:59:45;;;;;;;4.45;1.90;;;4.30;97.60;;;;;;5025884;28;20121;-69
2021/04/14 10:02:18;;;;;;;4.05;2.00;;;4.40;99.50;;;;;;5026408;28;20033;-71
2021/04/14 10:04:46;;;;;;;7.15;1.98;;;4.50;98.00;;;;;;5027567;28;20057;-72
2021/04/14 10:07:26;;;;;;;17.88;10.93;;;4.60;96.30;;;;;;5026779;28;20057;-72
2021/04/14 10:10:04;;;;;;;8.18;2.50;;;4.70;95.00;;;;;;5027799;28;20486;-72
2021/04/14 10:12:35;;;;;;;6.80;2.45;;;4.90;93.50;;;;;;5027180;28;20041;-72
2021/04/14 10:15:04;;;;;;;7.07;1.83;;;4.80;94.40;;;;;;5026169;28;20056;-70
2021/04/14 10:17:31;;;;;;;8.85;1.95;;;4.70;94.40;;;;;;5024661;28;20052;-73
2021/04/14 10:20:20;;;;;;;7.95;1.95;;;4.60;95.80;;;;;;5025830;28;20113;-71
2021/04/14 10:22:49;;;;;;;3.97;1.70;;;4.10;95.30;;;;;;5019181;28;20041;-70
2021/04/14 10:25:28;;;;;;;5.05;1.58;;;4.00;96.60;;;;;;5026752;28;20048;-73
2021/04/14 10:28:05;;;;;;;6.25;1.38;;;3.80;97.20;;;;;;5026748;28;20029;-70
2021/04/14 10:30:34;;;;;;;11.18;0.95;;;3.70;97.80;;;;;;5026411;28;20037;-72
2021/04/14 10:33:09;;;;;;;2.33;0.80;;;3.50;98.50;;;;;;5026944;28;20069;-72
2021/04/14 10:35:36;;;;;;;3.55;0.80;;;3.40;98.60;;;;;;5026606;28;20049;-70
2021/04/14 10:38:03;;;;;;;2.67;0.70;;;3.30;98.50;;;;;;5025690;28;20044;-70
2021/04/14 10:40:39;;;;;;;0.98;0.68;;;3.30;99.10;;;;;;5026057;28;20056;-72
2021/04/14 10:43:13;;;;;;;2.83;0.65;;;3.30;98.30;;;;;;5025781;28;20057;-72
2021/04/14 10:46:09;;;;;;;2.22;0.43;;;3.40;98.30;;;;;;5026420;28;20041;-70
2021/04/14 10:48:45;;;;;;;2.28;0.47;;;3.50;98.70;;;;;;5029163;28;20045;-69
2021/04/14 10:51:11;;;;;;;;;;;3.60;99.90;;;;;;5029144;28;20033;-70
2021/04/14 10:53:40;;;;;;;1.60;0.50;;;3.90;99.90;;;;;;5020249;28;19921;-71
2021/04/14 10:56:14;;;;;;;2.15;0.60;;;4.20;99.40;;;;;;5027533;28;20087;-70
2021/04/14 10:58:40;;;;;;;2.28;1.17;;;4.30;98.70;;;;;;5018356;28;20256;-70
2021/04/14 11:01:13;;;;;;;2.67;1.08;;;4.50;98.60;;;;;;5024435;28;20522;-71
2021/04/14 11:03:45;;;;;;;3.30;1.05;;;4.60;97.50;;;;;;5017834;28;20052;-71
2021/04/14 11:06:12;;;;;;;2.67;1.10;;;4.70;97.90;;;;;;5028687;28;20033;-70
2021/04/14 11:08:41;;;;;;;3.20;1.10;;;4.80;96.70;;;;;;5024615;28;20087;-71
2021/04/14 11:11:07;;;;;;;5.38;0.90;;;4.60;96.50;;;;;;5026343;28;20072;-70
2021/04/14 11:13:35;;;;;;;3.42;0.80;;;4.30;96.80;;;;;;5016854;28;20087;-70
2021/04/14 11:16:02;;;;;;;3.40;1.02;;;4.30;97.50;;;;;;5025378;28;20068;-69
2021/04/14 11:18:40;;;;;;;7.10;1.58;;;4.30;97.90;;;;;;5033641;28;20116;-71
2021/04/14 11:21:30;;;;;;;5.10;1.20;;;4.30;96.90;;;;;;5023556;28;20052;-70
2021/04/14 11:24:13;;;;;;;5.50;1.33;;;4.50;99.90;;;;;;5023568;28;20037;-69
2021/04/14 11:26:52;;;;;;;5.10;1.50;;;4.80;98.90;;;;;;5040978;28;20042;-72
2021/04/14 11:29:29;;;;;;;5.47;1.40;;;4.60;96.90;;;;;;5023849;28;20033;-69
2021/04/14 11:31:59;;;;;;;4.85;1.52;;;4.50;95.70;;;;;;5024390;28;20029;-69
2021/04/14 11:34:33;;;;;;;2.95;1.10;;;4.50;96.50;;;;;;5026090;28;20041;-70
2021/04/14 11:37:20;;;;;;;4.95;1.30;;;4.60;95.80;;;;;;5025215;28;20081;-71
2021/04/14 11:39:57;;;;;;;7.93;1.42;;;4.70;93.10;;;;;;5023793;28;20038;-69
2021/04/14 11:42:26;;;;;;;4.70;1.80;;;4.70;94.30;;;;;;5026772;28;20099;-72
2021/04/14 11:44:54;;;;;;;7.00;1.33;;;4.80;95.20;;;;;;5026477;28;20498;-69
2021/04/14 11:47:36;;;;;;;6.43;0.90;;;4.70;92.40;;;;;;5026007;28;20045;-72
2021/04/14 11:50:12;;;;;;;5.75;1.20;;;4.80;93.60;;;;;;5016728;28;20495;-71
2021/04/14 11:52:48;;;;;;;5.40;1.10;;;4.90;93.40;;;;;;5016471;28;20037;-71
2021/04/14 11:55:20;;;;;;;4.05;1.10;;;4.80;91.20;;;;;;5031800;28;20044;-71
2021/04/14 11:57:49;;;;;;;4.82;2.20;;;5.00;93.10;;;;;;5025166;28;20069;-70
2021/04/14 12:00:21;;;;;;;9.57;2.20;;;5.20;94.50;;;;;;5016343;28;20502;-69
2021/04/14 12:02:51;;;;;;;4.63;1.40;;;5.30;92.70;;;;;;5023922;28;20030;-70
2021/04/14 12:05:17;;;;;;;3.40;1.50;;;5.60;91.70;;;;;;5025955;28;20048;-71
2021/04/14 12:07:44;;;;;;;6.70;1.92;;;5.80;93.20;;;;;;5023199;28;20091;-72
2021/04/14 12:10:10;;;;;;;5.20;1.40;;;5.70;97.20;;;;;;5024095;28;20438;-71
2021/04/14 12:12:36;;;;;;;5.57;1.95;;;5.40;96.90;;;;;;5027944;28;20037;-71
2021/04/14 12:15:02;;;;;;;;;;;4.90;98.50;;;;;;5025688;28;20048;-70
2021/04/14 12:17:28;;;;;;;6.70;3.88;;;4.70;98.60;;;;;;5028093;28;19956;-71
2021/04/14 12:19:53;;;;;;;;;;;4.50;99.30;;;;;;5028232;28;20069;-71
2021/04/14 12:22:20;;;;;;;8.77;2.40;;;4.50;99.90;;;;;;5027565;28;19920;-71
2021/04/14 12:24:46;;;;;;;4.95;2.60;;;4.60;99.90;;;;;;5029731;28;20041;-68
2021/04/14 12:27:12;;;;;;;4.38;2.25;;;4.70;99.90;;;;;;5029663;28;20072;-71
2021/04/14 12:29:38;;;;;;;;;;;4.50;99.90;;;;;;5026268;28;20065;-71
2021/04/14 12:32:04;;;;;;;3.72;2.25;;;4.40;99.90;;;;;;5022598;28;20289;-74
2021/04/14 12:34:30;;;;;;;5.93;2.97;;;4.10;99.90;;;;;;5027762;28;20052;-73
2021/04/14 12:36:57;;;;;;;2.95;1.90;;;4.00;99.90;;;;;;5027769;28;20042;-73
2021/04/14 12:39:24;;;;;;;6.45;2.67;;;4.10;99.90;;;;;;5027833;28;20037;-71
2021/04/14 12:41:51;;;;;;;7.07;1.50;;;4.10;99.90;;;;;;5026008;28;20091;-70
2021/04/14 12:44:19;;;;;;;2.70;1.80;;;4.20;99.90;;;;;;5025644;28;20041;-70
2021/04/14 12:46:48;;;;;;;3.40;1.50;;;4.00;99.90;;;;;;5027279;28;20547;-72
2021/04/14 12:49:16;;;;;;;1.63;1.10;;;4.00;99.90;;;;;;5027657;28;20129;-70
2021/04/14 12:51:50;;;;;;;4.78;2.65;;;4.00;99.90;;;;;;5029094;28;20048;-71
2021/04/14 12:54:19;;;;;;;4.30;1.67;;;4.10;99.90;;;;;;5029092;28;20502;-72
2021/04/14 12:57:08;;;;;;;2.95;1.00;;;4.10;99.90;;;;;;5027997;28;20045;-71
2021/04/14 12:59:39;;;;;;;4.35;1.52;;;4.10;99.90;;;;;;5028738;28;20131;-72
2021/04/14 13:02:14;;;;;;;2.13;1.13;;;4.20;98.60;;;;;;5027622;28;20036;-74
2021/04/14 13:05:11;;;;;;;5.45;1.00;;;4.00;98.60;;;;;;5034095;28;20401;-72
2021/04/14 13:07:42;;;;;;;;;;;4.10;97.80;;;;;;5025031;28;20053;-69
2021/04/14 13:10:09;;;;;;;4.50;1.13;;;4.10;99.10;;;;;;5025536;28;19974;-73
2021/04/14 13:12:37;;;;;;;6.13;1.80;;;4.20;98.30;;;;;;5027933;28;20117;-74